Time;durP1;ratioP1;P1;durP2;ratioP2;P2;SDS_P1;SDS_P2;PMS_P1;PMS_P2;Temp;Humidity;BMP_temperature;BMP_pressure;BME280_temperature;BME280_humidity;BME280_pressure;Samples;Min_cycle;Max_cycle;Signal;HPM_P1;HPM_P2
2020/12/08 00:00:21;;;;;;;16.47;12.03;;;4.80;91.40;;;;;;5035280;28;20453;-70
2020/12/08 00:02:48;;;;;;;16.30;12.20;;;4.80;91.50;;;;;;5035206;28;20423;-70
2020/12/08 00:05:16;;;;;;;18.57;13.70;;;4.70;91.50;;;;;;5035170;28;20446;-70
2020/12/08 00:07:42;;;;;;;22.47;14.20;;;4.80;91.70;;;;;;5035321;28;20486;-71
2020/12/08 00:10:09;;;;;;;19.37;13.43;;;4.70;91.60;;;;;;5035018;28;20492;-71
2020/12/08 00:12:35;;;;;;;19.67;13.47;;;4.80;91.70;;;;;;5034781;28;20832;-70
2020/12/08 00:15:01;;;;;;;20.67;13.87;;;4.80;91.60;;;;;;5035081;28;20422;-70
2020/12/08 00:17:28;;;;;;;22.20;14.53;;;4.80;91.50;;;;;;5035101;28;20466;-70
2020/12/08 00:19:54;;;;;;;22.73;15.83;;;4.80;91.40;;;;;;5034744;28;20814;-70
2020/12/08 00:22:21;;;;;;;21.90;14.50;;;4.80;91.40;;;;;;5034971;28;20476;-70
2020/12/08 00:24:47;;;;;;;20.03;14.67;;;4.80;91.50;;;;;;5034704;28;20437;-71
2020/12/08 00:27:13;;;;;;;22.70;15.77;;;4.80;91.50;;;;;;5034698;28;20490;-71
2020/12/08 00:29:40;;;;;;;17.90;13.40;;;4.80;91.60;;;;;;5034955;28;20466;-71
2020/12/08 00:32:08;;;;;;;19.90;14.43;;;4.70;91.60;;;;;;5034974;28;20446;-71
2020/12/08 00:34:34;;;;;;;21.53;14.80;;;4.80;91.60;;;;;;5034754;28;20758;-71
2020/12/08 00:37:00;;;;;;;17.10;12.93;;;4.80;91.60;;;;;;5034476;28;20477;-71
2020/12/08 00:39:27;;;;;;;23.03;15.03;;;4.80;91.60;;;;;;5034379;28;20979;-71
2020/12/08 00:41:54;;;;;;;23.03;15.50;;;4.80;91.60;;;;;;5034393;28;20423;-70
2020/12/08 00:44:20;;;;;;;19.70;13.20;;;4.80;91.50;;;;;;5034288;28;20443;-71
2020/12/08 00:46:49;;;;;;;19.73;13.57;;;4.80;91.50;;;;;;5034810;28;20485;-70
2020/12/08 00:49:16;;;;;;;20.30;14.03;;;4.80;91.50;;;;;;5034007;28;20990;-70
2020/12/08 00:51:42;;;;;;;17.07;12.90;;;4.80;91.40;;;;;;5034222;28;20442;-70
2020/12/08 00:54:09;;;;;;;20.77;13.27;;;4.80;91.30;;;;;;5034232;28;20449;-70
2020/12/08 00:56:36;;;;;;;18.50;13.73;;;4.80;91.20;;;;;;5034109;28;20454;-71
2020/12/08 00:59:02;;;;;;;16.73;12.20;;;4.80;91.00;;;;;;5032886;28;20439;-70
2020/12/08 01:01:29;;;;;;;19.13;12.63;;;4.70;90.90;;;;;;5034126;28;20458;-70
2020/12/08 01:03:55;;;;;;;16.37;11.60;;;4.70;90.80;;;;;;5033971;28;20439;-70
2020/12/08 01:06:22;;;;;;;18.30;13.37;;;4.70;90.60;;;;;;5033947;28;20473;-70
2020/12/08 01:08:48;;;;;;;19.37;12.97;;;4.70;90.50;;;;;;5033891;28;20514;-70
2020/12/08 01:11:14;;;;;;;17.27;12.13;;;4.70;90.40;;;;;;5033946;28;20449;-70
2020/12/08 01:13:41;;;;;;;15.30;11.27;;;4.70;90.40;;;;;;5033600;28;20990;-70
2020/12/08 01:16:07;;;;;;;18.23;12.30;;;4.60;90.30;;;;;;5033757;28;20496;-71
2020/12/08 01:18:33;;;;;;;14.33;12.60;;;4.60;90.30;;;;;;5033790;28;20446;-70
2020/12/08 01:21:00;;;;;;;18.10;13.00;;;4.60;90.20;;;;;;5034104;28;20419;-71
2020/12/08 01:23:26;;;;;;;17.47;12.43;;;4.60;90.20;;;;;;5033662;28;20446;-71
2020/12/08 01:25:53;;;;;;;18.70;12.70;;;4.50;90.00;;;;;;5033730;28;20438;-71
2020/12/08 01:28:19;;;;;;;15.17;12.20;;;4.50;90.00;;;;;;5033538;28;20490;-71
2020/12/08 01:30:47;;;;;;;17.50;13.20;;;4.50;90.30;;;;;;5033315;28;20959;-70
2020/12/08 01:33:14;;;;;;;18.00;12.87;;;4.50;90.00;;;;;;5033614;28;20897;-70
2020/12/08 01:35:40;;;;;;;16.33;11.53;;;4.50;90.00;;;;;;5033258;28;20966;-70
2020/12/08 01:38:06;;;;;;;18.93;13.10;;;4.40;90.00;;;;;;5033494;28;20459;-70
2020/12/08 01:40:32;;;;;;;17.00;12.33;;;4.40;89.80;;;;;;5033583;28;20857;-70
2020/12/08 01:42:59;;;;;;;16.40;12.30;;;4.40;89.70;;;;;;5033497;28;20456;-71
2020/12/08 01:45:25;;;;;;;17.73;13.60;;;4.40;89.80;;;;;;5033419;28;20480;-71
2020/12/08 01:47:53;;;;;;;17.43;12.23;;;4.40;89.80;;;;;;5033320;28;20565;-71
2020/12/08 01:50:20;;;;;;;20.03;13.50;;;4.40;89.80;;;;;;5033485;28;20446;-71
2020/12/08 01:52:46;;;;;;;16.60;13.30;;;4.30;89.70;;;;;;5033399;28;20474;-70
2020/12/08 01:55:14;;;;;;;17.53;12.73;;;4.30;89.70;;;;;;5033324;28;20449;-70
2020/12/08 01:57:41;;;;;;;17.17;12.23;;;4.30;89.90;;;;;;5033336;28;20881;-70
2020/12/08 02:00:07;;;;;;;18.90;13.03;;;4.30;89.80;;;;;;5033306;28;20438;-70
2020/12/08 02:02:33;;;;;;;16.83;13.50;;;4.30;90.00;;;;;;5033257;28;20450;-70
2020/12/08 02:05:01;;;;;;;18.00;12.50;;;4.30;90.10;;;;;;5033310;28;20453;-70
2020/12/08 02:07:28;;;;;;;19.27;13.90;;;4.30;90.20;;;;;;5032754;28;21018;-70
2020/12/08 02:09:55;;;;;;;20.70;14.73;;;4.30;90.30;;;;;;5033627;28;20492;-70
2020/12/08 02:12:21;;;;;;;16.87;12.67;;;4.30;90.40;;;;;;5037189;28;20438;-70
2020/12/08 02:14:47;;;;;;;18.10;13.00;;;4.30;90.50;;;;;;5037154;28;20817;-70
2020/12/08 02:17:14;;;;;;;18.60;12.43;;;4.30;90.60;;;;;;5037192;28;20470;-71
2020/12/08 02:19:43;;;;;;;16.90;12.80;;;4.30;90.70;;;;;;5037065;28;20446;-70
2020/12/08 02:22:11;;;;;;;16.77;11.73;;;4.30;90.90;;;;;;5037026;28;20453;-70
2020/12/08 02:24:37;;;;;;;18.67;13.27;;;4.30;90.90;;;;;;5036948;28;20450;-70
2020/12/08 02:27:03;;;;;;;20.77;13.80;;;4.30;90.90;;;;;;5036549;28;20990;-71
2020/12/08 02:29:29;;;;;;;17.60;12.77;;;4.30;90.90;;;;;;5037633;28;20438;-70
2020/12/08 02:31:55;;;;;;;15.80;12.30;;;4.30;90.90;;;;;;5036831;28;20441;-70
2020/12/08 02:34:21;;;;;;;16.80;12.00;;;4.30;91.00;;;;;;5036770;28;20465;-70
2020/12/08 02:36:55;;;;;;;17.73;12.83;;;4.30;91.10;;;;;;5036308;28;20474;-70
2020/12/08 02:39:22;;;;;;;20.10;14.23;;;4.30;91.30;;;;;;5036655;28;20430;-70
2020/12/08 02:41:48;;;;;;;20.77;14.10;;;4.30;91.50;;;;;;5036326;28;20951;-70
2020/12/08 02:44:14;;;;;;;18.77;14.23;;;4.30;91.70;;;;;;5036575;28;20446;-70
2020/12/08 02:46:41;;;;;;;20.43;13.97;;;4.40;91.90;;;;;;5036436;28;20465;-70
2020/12/08 02:49:07;;;;;;;20.93;14.00;;;4.30;91.90;;;;;;5036415;28;20612;-70
2020/12/08 02:51:33;;;;;;;24.73;14.10;;;4.40;92.10;;;;;;5036455;28;20433;-70
2020/12/08 02:53:59;;;;;;;19.20;14.13;;;4.40;92.20;;;;;;5036099;28;20442;-70
2020/12/08 02:56:26;;;;;;;23.00;15.00;;;4.40;92.30;;;;;;5036294;28;20870;-70
2020/12/08 02:58:52;;;;;;;19.33;13.67;;;4.40;92.30;;;;;;5036293;28;20449;-70
2020/12/08 03:01:19;;;;;;;18.63;13.40;;;4.40;92.40;;;;;;5036221;28;20477;-70
2020/12/08 03:03:45;;;;;;;20.20;15.30;;;4.50;92.40;;;;;;5036181;28;20843;-70
2020/12/08 03:06:11;;;;;;;21.43;13.70;;;4.50;92.50;;;;;;5036083;28;20494;-70
2020/12/08 03:08:38;;;;;;;19.63;14.13;;;4.50;92.60;;;;;;5036242;28;20501;-71
2020/12/08 03:11:04;;;;;;;22.97;15.83;;;4.60;92.70;;;;;;5035739;28;20446;-70
2020/12/08 03:13:32;;;;;;;19.73;14.77;;;4.50;92.70;;;;;;5035995;28;20465;-70
2020/12/08 03:15:58;;;;;;;21.60;14.47;;;4.50;92.80;;;;;;5035938;28;20442;-70
2020/12/08 03:18:25;;;;;;;21.93;14.40;;;4.50;92.90;;;;;;5035841;28;20458;-70
2020/12/08 03:20:51;;;;;;;18.00;13.07;;;4.60;93.00;;;;;;5035957;28;20443;-70
2020/12/08 03:23:17;;;;;;;18.53;12.97;;;4.60;93.10;;;;;;5034766;28;20446;-70
2020/12/08 03:25:43;;;;;;;17.30;13.97;;;4.60;93.10;;;;;;5035799;28;20442;-70
2020/12/08 03:28:09;;;;;;;21.03;15.53;;;4.60;93.10;;;;;;5035689;28;20478;-70
2020/12/08 03:30:36;;;;;;;19.43;14.57;;;4.60;93.20;;;;;;5035725;28;20488;-70
2020/12/08 03:33:03;;;;;;;24.07;17.27;;;4.70;93.20;;;;;;5035665;28;20442;-70
2020/12/08 03:35:29;;;;;;;20.37;14.37;;;4.70;93.20;;;;;;5035429;28;20932;-70
2020/12/08 03:37:55;;;;;;;20.40;15.07;;;4.70;93.30;;;;;;5035176;28;21042;-70
2020/12/08 03:40:21;;;;;;;22.63;15.37;;;4.70;93.30;;;;;;5035580;28;20419;-70
2020/12/08 03:42:47;;;;;;;19.90;15.77;;;4.70;93.30;;;;;;5035479;28;20445;-70
2020/12/08 03:45:13;;;;;;;18.37;14.87;;;4.70;93.40;;;;;;5035129;28;20940;-70
2020/12/08 03:47:41;;;;;;;23.47;16.50;;;4.70;93.40;;;;;;5035220;28;20490;-70
2020/12/08 03:50:07;;;;;;;21.00;16.13;;;4.80;93.40;;;;;;5035337;28;20442;-70
2020/12/08 03:52:33;;;;;;;20.20;14.20;;;4.80;93.40;;;;;;5035010;28;20447;-70
2020/12/08 03:54:59;;;;;;;22.43;16.20;;;4.80;93.40;;;;;;5035287;28;20478;-70
2020/12/08 03:57:25;;;;;;;20.90;15.70;;;4.80;93.30;;;;;;5034912;28;20829;-70
2020/12/08 03:59:52;;;;;;;22.17;15.10;;;4.80;93.30;;;;;;5035343;28;20439;-70
2020/12/08 04:02:18;;;;;;;19.30;14.60;;;4.80;93.40;;;;;;5035146;28;20442;-70
2020/12/08 04:04:45;;;;;;;19.83;14.57;;;4.80;93.30;;;;;;5035338;28;20442;-70
2020/12/08 04:07:11;;;;;;;18.17;14.60;;;4.80;93.30;;;;;;5034879;28;20459;-70
2020/12/08 04:09:37;;;;;;;19.37;13.53;;;4.80;93.40;;;;;;5034842;28;20482;-71
2020/12/08 04:12:03;;;;;;;19.40;14.13;;;4.80;93.40;;;;;;5034885;28;20453;-70
2020/12/08 04:14:30;;;;;;;19.50;14.30;;;4.80;93.40;;;;;;5034893;28;20830;-70
2020/12/08 04:16:56;;;;;;;23.47;15.60;;;4.80;93.40;;;;;;5034794;28;20470;-70
2020/12/08 04:19:22;;;;;;;19.73;15.70;;;4.90;93.50;;;;;;5034759;28;20472;-70
2020/12/08 04:21:49;;;;;;;19.63;15.10;;;4.80;93.40;;;;;;5034725;28;20442;-70
2020/12/08 04:24:15;;;;;;;19.20;15.00;;;4.90;93.50;;;;;;5034446;28;20447;-70
2020/12/08 04:26:45;;;;;;;25.07;15.93;;;4.90;93.50;;;;;;5034283;28;20972;-70
2020/12/08 04:29:11;;;;;;;21.03;15.87;;;4.90;93.50;;;;;;5034525;28;20482;-70
2020/12/08 04:31:37;;;;;;;22.00;15.33;;;4.90;93.50;;;;;;5034563;28;20449;-70
2020/12/08 04:34:03;;;;;;;20.83;15.40;;;4.90;93.40;;;;;;5034329;28;20501;-70
2020/12/08 04:36:29;;;;;;;23.10;16.87;;;4.90;93.40;;;;;;5034352;28;20470;-71
2020/12/08 04:38:56;;;;;;;25.10;16.70;;;4.90;93.40;;;;;;5034384;28;20469;-70
2020/12/08 04:41:24;;;;;;;21.97;15.70;;;4.90;93.50;;;;;;5034455;28;20465;-70
2020/12/08 04:43:51;;;;;;;23.07;16.73;;;4.90;93.50;;;;;;5034576;28;20446;-70
2020/12/08 04:46:18;;;;;;;19.63;14.93;;;4.90;93.50;;;;;;5034256;28;20447;-71
2020/12/08 04:48:45;;;;;;;22.67;16.13;;;4.90;93.60;;;;;;5034072;28;20486;-71
2020/12/08 04:51:11;;;;;;;20.10;16.10;;;4.90;93.60;;;;;;5034213;28;20449;-71
2020/12/08 04:53:38;;;;;;;20.80;14.60;;;4.90;93.60;;;;;;5034140;28;20489;-70
2020/12/08 04:56:05;;;;;;;23.60;16.40;;;5.00;93.60;;;;;;5033688;28;20447;-70
2020/12/08 04:58:31;;;;;;;20.60;15.47;;;5.00;93.60;;;;;;5034138;28;20442;-70
2020/12/08 05:00:58;;;;;;;23.60;16.60;;;5.00;93.60;;;;;;5033904;28;20959;-70
2020/12/08 05:03:25;;;;;;;23.57;17.17;;;5.00;93.60;;;;;;5034034;28;20500;-70
2020/12/08 05:05:52;;;;;;;24.63;18.20;;;5.00;93.60;;;;;;5033932;28;20545;-70
2020/12/08 05:08:20;;;;;;;21.20;15.50;;;5.00;93.60;;;;;;5033856;28;20482;-71
2020/12/08 05:10:47;;;;;;;24.30;16.73;;;5.00;93.60;;;;;;5033954;28;20447;-71
2020/12/08 05:13:20;;;;;;;21.73;15.53;;;5.00;93.60;;;;;;5033911;28;20807;-70
2020/12/08 05:15:59;;;;;;;31.40;18.10;;;5.00;93.60;;;;;;5033617;28;20489;-70
2020/12/08 05:18:26;;;;;;;23.00;16.07;;;5.00;93.60;;;;;;5033434;28;20839;-71
2020/12/08 05:20:52;;;;;;;23.03;15.47;;;5.00;93.50;;;;;;5033732;28;20446;-71
2020/12/08 05:23:18;;;;;;;21.80;16.37;;;5.00;93.50;;;;;;5033732;28;20450;-70
2020/12/08 05:25:45;;;;;;;25.63;16.07;;;5.00;93.40;;;;;;5033749;28;20438;-70
2020/12/08 05:28:18;;;;;;;21.07;15.63;;;5.00;93.40;;;;;;5033523;28;20521;-70
2020/12/08 05:30:45;;;;;;;20.60;15.40;;;5.00;93.40;;;;;;5033715;28;20517;-70
2020/12/08 05:33:17;;;;;;;24.83;15.40;;;4.90;93.30;;;;;;5033671;28;20447;-71
2020/12/08 05:35:46;;;;;;;20.60;15.33;;;4.90;93.20;;;;;;5033485;28;20570;-71
2020/12/08 05:38:15;;;;;;;23.83;15.67;;;4.90;93.30;;;;;;5033451;28;20497;-70
2020/12/08 05:40:44;;;;;;;22.20;16.67;;;4.90;93.20;;;;;;5033576;28;20502;-70
2020/12/08 05:43:10;;;;;;;21.30;16.17;;;4.90;93.30;;;;;;5033593;28;20861;-70
2020/12/08 05:45:37;;;;;;;25.17;17.20;;;4.90;93.40;;;;;;5032604;28;20442;-70
2020/12/08 05:48:03;;;;;;;23.93;16.30;;;5.00;93.50;;;;;;5033906;28;21010;-71
2020/12/08 05:50:30;;;;;;;20.40;16.07;;;5.00;93.60;;;;;;5033564;28;20451;-71
2020/12/08 05:52:57;;;;;;;23.10;16.57;;;5.00;93.70;;;;;;5033171;28;20961;-71
2020/12/08 05:55:25;;;;;;;24.73;16.63;;;5.00;93.70;;;;;;5033566;28;20430;-70
2020/12/08 05:57:52;;;;;;;21.27;15.57;;;5.00;93.70;;;;;;5033349;28;20469;-70
2020/12/08 06:00:23;;;;;;;21.13;15.17;;;5.00;93.70;;;;;;5033287;28;20504;-70
2020/12/08 06:02:51;;;;;;;23.20;15.33;;;5.00;93.70;;;;;;5033356;28;20431;-71
2020/12/08 06:05:27;;;;;;;20.00;14.60;;;5.00;93.70;;;;;;5033216;28;20446;-70
2020/12/08 06:07:54;;;;;;;20.80;14.70;;;5.00;93.70;;;;;;5033201;28;20485;-71
2020/12/08 06:10:20;;;;;;;21.43;15.00;;;5.00;93.70;;;;;;5033204;28;20442;-70
2020/12/08 06:12:56;;;;;;;26.50;15.40;;;5.00;93.60;;;;;;5033505;28;20442;-70
2020/12/08 06:15:24;;;;;;;19.73;14.13;;;5.00;93.60;;;;;;5033326;28;20458;-70
2020/12/08 06:17:52;;;;;;;22.67;15.80;;;5.10;93.70;;;;;;5032989;28;20471;-71
2020/12/08 06:20:18;;;;;;;19.80;15.07;;;5.00;93.60;;;;;;5033000;28;20443;-71
2020/12/08 06:22:54;;;;;;;20.67;15.57;;;5.10;93.70;;;;;;5033155;28;20446;-71
2020/12/08 06:25:20;;;;;;;22.37;16.33;;;5.10;93.70;;;;;;5033034;28;20430;-71
2020/12/08 06:27:46;;;;;;;21.80;15.90;;;5.10;93.80;;;;;;5032699;28;20984;-71
2020/12/08 06:30:12;;;;;;;21.53;15.37;;;5.10;93.80;;;;;;5033116;28;20454;-71
2020/12/08 06:32:42;;;;;;;24.23;17.10;;;5.10;93.80;;;;;;5033174;28;20453;-71
2020/12/08 06:35:11;;;;;;;24.60;17.33;;;5.10;93.90;;;;;;5033353;28;20520;-72
2020/12/08 06:37:44;;;;;;;23.10;16.63;;;5.10;94.00;;;;;;5032618;28;20471;-71
2020/12/08 06:40:12;;;;;;;25.43;17.63;;;5.20;94.10;;;;;;5032975;28;20787;-71
2020/12/08 06:42:39;;;;;;;25.57;19.07;;;5.20;94.10;;;;;;5032963;28;20465;-71
2020/12/08 06:45:10;;;;;;;30.97;19.53;;;5.20;94.20;;;;;;5033067;28;20453;-71
2020/12/08 06:47:37;;;;;;;28.73;18.83;;;5.20;94.20;;;;;;5032842;28;20474;-71
2020/12/08 06:50:04;;;;;;;29.40;19.07;;;5.20;94.20;;;;;;5032839;28;20442;-71
2020/12/08 06:52:32;;;;;;;26.07;18.70;;;5.20;94.30;;;;;;5032947;28;20894;-71
2020/12/08 06:54:59;;;;;;;25.57;18.07;;;5.20;94.30;;;;;;5032987;28;20438;-71
2020/12/08 06:57:25;;;;;;;25.60;17.37;;;5.30;94.40;;;;;;5035090;28;20835;-71
2020/12/08 07:00:01;;;;;;;24.13;18.37;;;5.30;94.40;;;;;;5036655;28;20498;-71
2020/12/08 07:02:28;;;;;;;20.93;14.87;;;5.30;94.70;;;;;;5036683;28;20422;-71
2020/12/08 07:04:55;;;;;;;22.50;16.23;;;5.40;94.40;;;;;;5036520;28;20530;-71
2020/12/08 07:07:22;;;;;;;23.90;17.40;;;5.30;94.20;;;;;;5036469;28;20462;-71
2020/12/08 07:09:50;;;;;;;24.10;17.37;;;5.40;94.20;;;;;;5036155;28;20871;-71
2020/12/08 07:12:16;;;;;;;23.53;17.90;;;5.40;94.10;;;;;;5036389;28;20453;-71
2020/12/08 07:14:43;;;;;;;22.00;16.93;;;5.40;94.00;;;;;;5036095;28;20986;-71
2020/12/08 07:17:10;;;;;;;23.20;16.50;;;5.40;93.90;;;;;;5036224;28;20465;-71
2020/12/08 07:19:39;;;;;;;22.10;17.07;;;5.50;93.90;;;;;;5036176;28;20441;-71
2020/12/08 07:22:13;;;;;;;22.13;16.47;;;5.50;93.80;;;;;;5035957;28;20540;-71
2020/12/08 07:24:44;;;;;;;20.10;15.50;;;5.40;93.60;;;;;;5018397;28;20447;-71
2020/12/08 07:27:22;;;;;;;20.10;15.97;;;5.50;93.70;;;;;;5035882;28;20462;-71
2020/12/08 07:30:02;;;;;;;22.00;16.70;;;5.40;93.60;;;;;;5035534;28;20963;-71
2020/12/08 07:32:28;;;;;;;19.07;15.60;;;5.50;93.60;;;;;;5035548;28;20912;-71
2020/12/08 07:34:54;;;;;;;20.37;16.17;;;5.50;93.60;;;;;;5035637;28;20457;-71
2020/12/08 07:37:20;;;;;;;23.03;15.33;;;5.50;93.70;;;;;;5035688;28;20482;-71
2020/12/08 07:39:47;;;;;;;18.40;14.40;;;5.50;93.60;;;;;;5035737;28;20493;-71
2020/12/08 07:42:17;;;;;;;20.57;16.37;;;5.50;93.40;;;;;;5035750;28;20450;-71
2020/12/08 07:44:54;;;;;;;19.70;13.83;;;5.50;93.40;;;;;;5035606;28;20433;-72
2020/12/08 07:47:20;;;;;;;18.17;14.57;;;5.50;93.30;;;;;;5035586;28;20469;-71
2020/12/08 07:49:47;;;;;;;18.17;14.60;;;5.50;93.20;;;;;;5035442;28;20890;-71
2020/12/08 07:52:17;;;;;;;17.70;14.17;;;5.60;93.10;;;;;;5035427;28;20438;-71
2020/12/08 07:54:43;;;;;;;17.10;13.23;;;5.60;93.10;;;;;;5035067;28;20892;-71
2020/12/08 07:57:09;;;;;;;15.97;12.77;;;5.60;93.10;;;;;;5035247;28;20473;-72
2020/12/08 07:59:36;;;;;;;15.83;13.00;;;5.60;92.90;;;;;;5035232;28;20438;-71
2020/12/08 08:02:02;;;;;;;17.40;13.40;;;5.60;92.80;;;;;;5034998;28;20447;-71
2020/12/08 08:04:29;;;;;;;16.70;13.37;;;5.60;92.70;;;;;;5035109;28;20434;-71
2020/12/08 08:06:56;;;;;;;15.83;12.77;;;5.60;92.70;;;;;;5036119;28;20494;-71
2020/12/08 08:09:22;;;;;;;17.40;13.60;;;5.60;92.70;;;;;;5034862;28;21054;-71
2020/12/08 08:11:48;;;;;;;16.07;12.90;;;5.60;92.60;;;;;;5035531;28;20458;-70
2020/12/08 08:14:15;;;;;;;14.50;11.97;;;5.60;92.50;;;;;;5035166;28;20963;-70
2020/12/08 08:16:42;;;;;;;16.47;13.50;;;5.60;92.50;;;;;;5035204;28;20468;-71
2020/12/08 08:19:08;;;;;;;15.07;12.13;;;5.70;92.60;;;;;;5035569;28;20464;-71
2020/12/08 08:21:34;;;;;;;15.70;13.20;;;5.70;92.50;;;;;;5035021;28;20450;-70
2020/12/08 08:24:01;;;;;;;16.20;12.47;;;5.70;92.40;;;;;;5035193;28;20434;-71
2020/12/08 08:26:27;;;;;;;15.50;12.53;;;5.70;92.40;;;;;;5034487;28;20488;-71
2020/12/08 08:28:54;;;;;;;17.00;13.27;;;5.70;92.30;;;;;;5034672;28;20483;-71
2020/12/08 08:31:20;;;;;;;16.73;13.07;;;5.80;92.20;;;;;;5034629;28;20441;-71
2020/12/08 08:33:47;;;;;;;16.23;12.83;;;5.70;92.10;;;;;;5034689;28;20468;-71
2020/12/08 08:36:14;;;;;;;19.30;13.47;;;5.80;92.40;;;;;;5034342;28;20468;-71
2020/12/08 08:38:40;;;;;;;18.90;14.30;;;5.80;92.20;;;;;;5034629;28;20438;-71
2020/12/08 08:41:06;;;;;;;18.67;13.87;;;5.80;92.20;;;;;;5034201;28;20944;-71
2020/12/08 08:43:33;;;;;;;15.40;13.00;;;5.80;92.20;;;;;;5034348;28;20438;-71
2020/12/08 08:45:59;;;;;;;16.90;15.00;;;5.80;92.10;;;;;;5034503;28;20468;-71
2020/12/08 08:48:25;;;;;;;17.70;14.07;;;5.80;92.10;;;;;;5034355;28;20486;-72
2020/12/08 08:50:52;;;;;;;19.67;13.60;;;5.80;92.10;;;;;;5034194;28;20446;-71
2020/12/08 08:53:19;;;;;;;17.07;14.40;;;5.80;92.00;;;;;;5034172;28;20478;-71
2020/12/08 08:55:45;;;;;;;17.23;13.43;;;5.80;92.00;;;;;;5034148;28;20449;-71
2020/12/08 08:58:11;;;;;;;14.93;12.73;;;5.90;92.00;;;;;;5033650;28;20470;-71
2020/12/08 09:00:38;;;;;;;17.33;13.47;;;5.90;91.90;;;;;;5034116;28;20453;-71
2020/12/08 09:03:06;;;;;;;17.27;14.07;;;5.90;91.70;;;;;;5033794;28;20769;-71
2020/12/08 09:05:32;;;;;;;17.20;13.07;;;5.90;91.50;;;;;;5033805;28;20967;-71
2020/12/08 09:07:59;;;;;;;15.10;12.60;;;5.90;91.10;;;;;;5033459;28;20466;-71
2020/12/08 09:10:26;;;;;;;18.40;13.70;;;5.90;90.80;;;;;;5033859;28;20446;-71
2020/12/08 09:12:52;;;;;;;16.83;12.67;;;5.90;90.90;;;;;;5034256;28;20446;-71
2020/12/08 09:15:18;;;;;;;17.47;14.00;;;5.90;91.00;;;;;;5034472;28;20538;-71
2020/12/08 09:17:45;;;;;;;16.40;13.13;;;5.90;91.10;;;;;;5034156;28;21022;-71
2020/12/08 09:20:11;;;;;;;18.40;14.40;;;5.90;91.30;;;;;;5033399;28;20445;-71
2020/12/08 09:22:37;;;;;;;18.33;14.53;;;6.00;91.50;;;;;;5033790;28;20963;-71
2020/12/08 09:25:04;;;;;;;18.17;13.60;;;6.00;91.60;;;;;;5033951;28;20476;-71
2020/12/08 09:27:31;;;;;;;17.97;13.30;;;6.10;91.70;;;;;;5034103;28;20832;-71
2020/12/08 09:29:57;;;;;;;20.60;14.27;;;6.10;91.80;;;;;;5033340;28;20488;-71
2020/12/08 09:32:23;;;;;;;20.03;14.10;;;6.10;91.80;;;;;;5033769;28;20497;-71
2020/12/08 09:34:50;;;;;;;14.57;12.67;;;6.20;91.80;;;;;;5033553;28;20426;-71
2020/12/08 09:37:16;;;;;;;16.17;12.60;;;6.20;91.70;;;;;;5033260;28;20565;-71
2020/12/08 09:39:42;;;;;;;15.57;13.57;;;6.20;91.60;;;;;;5034089;28;20518;-70
2020/12/08 09:42:09;;;;;;;15.80;12.17;;;6.30;91.50;;;;;;5033850;28;20443;-71
2020/12/08 09:44:36;;;;;;;16.57;12.67;;;6.30;91.50;;;;;;5033910;28;20446;-71
2020/12/08 09:47:02;;;;;;;15.87;12.60;;;6.40;91.40;;;;;;5033459;28;20462;-71
2020/12/08 09:49:29;;;;;;;19.63;14.40;;;6.50;91.20;;;;;;5033450;28;20840;-71
2020/12/08 09:51:55;;;;;;;15.50;12.40;;;6.50;91.00;;;;;;5033585;28;20434;-71
2020/12/08 09:54:21;;;;;;;16.47;13.00;;;6.60;90.90;;;;;;5033578;28;20442;-71
2020/12/08 09:56:48;;;;;;;14.37;12.07;;;6.60;90.80;;;;;;5033288;28;20466;-71
2020/12/08 09:59:15;;;;;;;17.27;13.27;;;6.60;90.70;;;;;;5033819;28;20505;-71
2020/12/08 10:01:41;;;;;;;14.20;12.23;;;6.60;90.60;;;;;;5033523;28;20446;-71
2020/12/08 10:04:08;;;;;;;16.57;11.90;;;6.70;90.50;;;;;;5033041;28;20944;-71
2020/12/08 10:06:34;;;;;;;16.00;13.60;;;6.70;90.50;;;;;;5033267;28;20458;-72
2020/12/08 10:09:01;;;;;;;16.27;12.70;;;6.80;90.50;;;;;;5032932;28;20948;-71
2020/12/08 10:11:27;;;;;;;16.23;12.50;;;6.80;90.40;;;;;;5033592;28;20426;-71
2020/12/08 10:13:54;;;;;;;17.00;12.47;;;6.80;90.40;;;;;;5033182;28;20453;-71
2020/12/08 10:16:22;;;;;;;17.50;13.10;;;6.80;90.20;;;;;;5033156;28;20480;-72
2020/12/08 10:18:49;;;;;;;18.50;14.00;;;6.90;90.20;;;;;;5033215;28;20433;-71
2020/12/08 10:21:19;;;;;;;16.60;13.10;;;6.90;90.10;;;;;;5033232;28;20437;-71
2020/12/08 10:23:45;;;;;;;16.77;13.50;;;6.90;90.00;;;;;;5032929;28;20433;-72
2020/12/08 10:26:12;;;;;;;16.43;12.10;;;7.00;90.00;;;;;;5033031;28;20450;-72
2020/12/08 10:28:39;;;;;;;17.03;13.40;;;7.00;89.90;;;;;;5033028;28;20462;-71
2020/12/08 10:31:05;;;;;;;19.13;13.57;;;7.10;89.70;;;;;;5033624;28;20439;-71
2020/12/08 10:33:32;;;;;;;15.70;13.10;;;7.10;89.50;;;;;;5036581;28;20924;-71
2020/12/08 10:35:58;;;;;;;13.50;12.03;;;7.10;90.00;;;;;;5036720;28;20805;-71
2020/12/08 10:38:25;;;;;;;14.63;12.20;;;7.20;89.30;;;;;;5036776;28;20553;-71
2020/12/08 10:40:51;;;;;;;15.60;13.00;;;7.20;89.30;;;;;;5036764;28;20517;-71
2020/12/08 10:43:19;;;;;;;15.03;12.67;;;7.30;89.10;;;;;;5036358;28;20442;-71
2020/12/08 10:45:46;;;;;;;15.87;12.33;;;7.30;88.90;;;;;;5036618;28;20444;-71
2020/12/08 10:48:12;;;;;;;14.83;12.37;;;7.30;88.60;;;;;;5036439;28;20459;-71
2020/12/08 10:50:39;;;;;;;15.93;12.47;;;7.30;88.50;;;;;;5036470;28;20446;-71
2020/12/08 10:53:06;;;;;;;15.10;13.00;;;7.30;88.30;;;;;;5036532;28;20442;-71
2020/12/08 10:55:33;;;;;;;13.83;12.37;;;7.30;88.30;;;;;;5036508;28;20500;-71
2020/12/08 10:57:59;;;;;;;14.90;11.90;;;7.30;88.10;;;;;;5036427;28;20466;-71
2020/12/08 11:00:25;;;;;;;17.83;13.17;;;7.40;88.20;;;;;;5036503;28;20419;-71
2020/12/08 11:02:52;;;;;;;14.47;11.90;;;7.30;88.10;;;;;;5036076;28;20437;-71
2020/12/08 11:05:18;;;;;;;13.27;11.87;;;7.40;88.10;;;;;;5036419;28;20514;-72
2020/12/08 11:07:45;;;;;;;15.53;13.10;;;7.40;87.90;;;;;;5036346;28;20474;-71
2020/12/08 11:10:11;;;;;;;14.83;11.33;;;7.40;87.90;;;;;;5036980;28;20478;-71
2020/12/08 11:12:38;;;;;;;15.07;13.00;;;7.50;87.90;;;;;;5037025;28;20433;-74
2020/12/08 11:15:05;;;;;;;15.73;13.43;;;7.40;87.30;;;;;;5037716;28;20943;-72
2020/12/08 11:17:35;;;;;;;15.60;13.00;;;7.50;87.30;;;;;;5036872;28;20553;-72
2020/12/08 11:20:02;;;;;;;17.20;14.13;;;7.40;87.30;;;;;;5037308;28;20434;-72
2020/12/08 11:22:28;;;;;;;15.60;12.53;;;7.40;87.40;;;;;;5038385;28;20449;-72
2020/12/08 11:24:57;;;;;;;15.93;11.90;;;7.40;87.50;;;;;;5037695;28;20964;-72
2020/12/08 11:27:23;;;;;;;16.30;12.67;;;7.40;87.60;;;;;;5037645;28;20472;-72
2020/12/08 11:29:49;;;;;;;15.40;12.30;;;7.40;87.60;;;;;;5037543;28;21026;-72
2020/12/08 11:32:16;;;;;;;15.87;13.00;;;7.40;87.60;;;;;;5037592;28;20453;-72
2020/12/08 11:34:43;;;;;;;15.23;12.10;;;7.30;87.40;;;;;;5037941;28;20972;-72
2020/12/08 11:37:10;;;;;;;13.40;11.80;;;7.30;87.30;;;;;;5037418;28;20473;-72
2020/12/08 11:39:36;;;;;;;17.07;12.17;;;7.30;87.20;;;;;;5037235;28;20435;-71
2020/12/08 11:42:05;;;;;;;15.20;12.33;;;7.30;87.10;;;;;;5037148;28;20442;-72
2020/12/08 11:44:31;;;;;;;14.67;12.53;;;7.30;87.20;;;;;;5037295;28;20442;-72
2020/12/08 11:46:58;;;;;;;15.13;11.50;;;7.30;86.40;;;;;;5035889;28;20466;-72
2020/12/08 11:49:24;;;;;;;14.77;12.60;;;7.30;86.60;;;;;;5035673;28;21007;-71
2020/12/08 11:51:51;;;;;;;14.80;11.80;;;7.30;86.90;;;;;;5036913;28;20446;-71
2020/12/08 11:54:17;;;;;;;16.87;13.17;;;7.30;87.00;;;;;;5039881;28;20529;-71
2020/12/08 11:56:44;;;;;;;15.47;12.67;;;7.30;87.10;;;;;;5039425;28;20860;-71
2020/12/08 11:59:11;;;;;;;13.90;12.20;;;7.30;87.20;;;;;;5035285;28;20469;-71
2020/12/08 12:01:37;;;;;;;13.57;11.83;;;7.40;87.30;;;;;;5035388;28;20496;-72
2020/12/08 12:04:04;;;;;;;14.57;12.60;;;7.40;87.40;;;;;;5035369;28;20431;-71
2020/12/08 12:06:30;;;;;;;13.30;11.90;;;7.40;87.50;;;;;;5035237;28;20466;-72
2020/12/08 12:08:57;;;;;;;14.70;11.83;;;7.30;87.40;;;;;;5035408;28;20473;-72
2020/12/08 12:11:24;;;;;;;14.70;11.60;;;7.40;87.60;;;;;;5035349;28;20959;-72
2020/12/08 12:13:50;;;;;;;14.40;12.07;;;7.40;87.60;;;;;;5035015;28;20991;-72
2020/12/08 12:16:17;;;;;;;16.20;13.40;;;7.40;87.60;;;;;;5035655;28;20427;-72
2020/12/08 12:18:44;;;;;;;14.07;11.77;;;7.40;87.70;;;;;;5035263;28;20439;-72
2020/12/08 12:21:12;;;;;;;16.20;12.57;;;7.40;87.90;;;;;;5035077;28;20443;-72
2020/12/08 12:23:38;;;;;;;16.17;14.00;;;7.40;87.90;;;;;;5034790;28;20458;-72
2020/12/08 12:26:05;;;;;;;16.47;13.23;;;7.30;88.00;;;;;;5034521;28;20813;-71
2020/12/08 12:28:31;;;;;;;19.10;13.97;;;7.40;88.30;;;;;;5034441;28;20470;-71
2020/12/08 12:30:57;;;;;;;15.97;12.87;;;7.40;88.50;;;;;;5034360;28;20446;-71
2020/12/08 12:33:24;;;;;;;16.80;13.23;;;7.40;88.70;;;;;;5034564;28;20443;-72